createdAt,value
2018-01-14T00:02:36.386Z,-0.77
2018-01-14T00:17:34.836Z,-0.87
2018-01-14T00:32:34.251Z,-1.01
2018-01-14T00:47:35.107Z,-1.03
2018-01-14T01:02:35.020Z,-1.28
2018-01-14T01:17:37.512Z,-1.34
2018-01-14T01:32:34.413Z,-1.44
2018-01-14T01:47:35.759Z,-1.50
2018-01-14T02:02:37.582Z,-1.57
2018-01-14T02:17:36.450Z,-1.71
2018-01-14T02:32:36.070Z,-1.69
2018-01-14T02:47:34.547Z,-1.75
2018-01-14T03:02:35.484Z,-1.76
2018-01-14T03:17:34.364Z,-1.88
2018-01-14T03:32:35.344Z,-1.97
2018-01-14T03:47:36.732Z,-2.00
2018-01-14T04:02:34.747Z,-2.12
2018-01-14T04:17:36.678Z,-2.06
2018-01-14T04:32:37.066Z,-1.95
2018-01-14T04:47:37.484Z,-1.94
2018-01-14T05:02:35.355Z,-1.83
2018-01-14T05:17:35.441Z,-1.71
2018-01-14T05:32:35.137Z,-1.71
2018-01-14T05:47:36.338Z,-1.71
2018-01-14T06:02:34.673Z,-1.75
2018-01-14T06:17:34.129Z,-1.78
2018-01-14T06:32:34.527Z,-1.74
2018-01-14T06:47:33.984Z,-1.74
2018-01-14T07:02:34.404Z,-1.73
2018-01-14T07:17:34.416Z,-1.69
2018-01-14T07:32:36.775Z,-1.71
2018-01-14T07:47:34.649Z,-1.81
2018-01-14T08:02:34.117Z,-1.83
2018-01-14T08:17:35.706Z,-1.68
2018-01-14T08:32:36.439Z,-1.51
2018-01-14T08:47:34.991Z,-1.36
2018-01-14T09:02:34.838Z,-1.41
2018-01-14T09:17:35.359Z,-1.32
2018-01-14T09:32:35.273Z,-1.25
2018-01-14T09:47:35.234Z,-1.33
2018-01-14T10:02:35.203Z,-1.31
2018-01-14T10:17:35.123Z,-1.15
2018-01-14T10:32:34.046Z,-1.02
2018-01-14T10:47:35.895Z,-0.85
2018-01-14T11:02:34.919Z,-0.81
2018-01-14T11:17:35.355Z,-0.85
2018-01-14T11:32:34.744Z,-0.76
2018-01-14T11:47:34.208Z,-0.94
2018-01-14T12:02:35.676Z,-1.08
2018-01-14T12:17:34.154Z,-1.10
2018-01-14T12:32:46.774Z,-0.92
2018-01-14T12:47:35.438Z,-0.96
2018-01-14T13:02:34.884Z,-0.98
2018-01-14T13:17:36.814Z,-0.25
2018-01-14T13:32:34.825Z,-0.64
2018-01-14T13:47:35.200Z,-0.80
2018-01-14T14:02:37.282Z,-0.97
2018-01-14T14:17:37.144Z,-1.17
2018-01-14T14:32:36.504Z,-1.12
2018-01-14T14:47:33.873Z,-1.26
2018-01-14T15:02:35.388Z,-1.32
2018-01-14T15:17:39.254Z,-1.30
2018-01-14T15:32:39.119Z,-1.33
2018-01-14T15:47:35.075Z,-1.42
2018-01-14T16:02:35.740Z,-1.41
2018-01-14T16:17:35.596Z,-1.46
2018-01-14T16:32:36.993Z,-1.45
2018-01-14T16:47:37.225Z,-1.60
2018-01-14T17:02:39.855Z,-1.76
2018-01-14T17:17:34.803Z,-1.86
2018-01-14T17:32:36.810Z,-1.83
2018-01-14T17:47:36.695Z,-1.76
2018-01-14T18:02:37.711Z,-1.69
2018-01-14T18:17:39.618Z,-1.72
2018-01-14T18:32:36.882Z,-1.73
2018-01-14T18:47:39.973Z,-1.81
2018-01-14T19:02:35.377Z,-1.76
2018-01-14T19:17:35.387Z,-1.71
2018-01-14T19:32:37.299Z,-1.74
2018-01-14T19:47:35.262Z,-1.74
2018-01-14T20:02:35.275Z,-1.86
2018-01-14T20:17:37.148Z,-1.81
2018-01-14T20:32:37.061Z,-1.86
2018-01-14T20:47:37.539Z,-1.90
2018-01-14T21:02:34.862Z,-1.95
2018-01-14T21:17:36.771Z,-1.89
2018-01-14T21:32:38.332Z,-1.96
2018-01-14T21:47:38.693Z,-1.86
2018-01-14T22:02:38.604Z,-2.09
2018-01-14T22:17:38.441Z,-2.16
2018-01-14T22:32:37.684Z,-2.08
2018-01-14T22:47:37.408Z,-2.04
2018-01-14T23:02:36.146Z,-2.03
2018-01-14T23:17:38.299Z,-1.86
2018-01-14T23:32:40.692Z,-1.64
2018-01-14T23:47:36.199Z,-1.56
